createdAt,value
2022-09-20T00:01:43.067Z,98060.00
2022-09-20T00:04:12.895Z,98071.88
2022-09-20T00:06:41.275Z,98082.88
2022-09-20T00:09:10.003Z,98074.66
2022-09-20T00:11:38.588Z,98085.50
2022-09-20T00:14:10.034Z,98069.69
2022-09-20T00:16:42.034Z,98089.03
2022-09-20T00:19:18.405Z,98087.78
2022-09-20T00:21:46.962Z,98092.94
2022-09-20T00:24:15.362Z,98096.09
2022-09-20T00:26:43.869Z,98098.56
2022-09-20T00:29:12.843Z,98105.50
2022-09-20T00:31:43.127Z,98106.97
2022-09-20T00:34:30.356Z,98092.38
2022-09-20T00:36:59.044Z,98096.31
2022-09-20T00:39:27.705Z,98102.53
2022-09-20T00:41:56.044Z,98100.66
2022-09-20T00:44:57.431Z,98098.56
2022-09-20T00:47:40.080Z,98108.78
2022-09-20T00:50:27.483Z,98121.31
2022-09-20T00:52:59.695Z,98110.28
2022-09-20T00:55:30.199Z,98115.38
2022-09-20T00:57:59.935Z,98116.19
2022-09-20T01:00:29.145Z,98115.81
2022-09-20T01:03:00.442Z,98141.09
2022-09-20T01:05:30.811Z,98135.59
2022-09-20T01:07:59.731Z,98136.19
2022-09-20T01:10:28.624Z,98144.97
2022-09-20T01:12:57.130Z,98167.22
2022-09-20T01:15:28.160Z,98162.13
2022-09-20T01:18:00.377Z,98169.53
2022-09-20T01:20:33.536Z,98168.13
2022-09-20T01:23:28.272Z,98179.38
2022-09-20T01:26:35.038Z,98176.22
2022-09-20T01:29:14.206Z,98177.28
2022-09-20T01:31:47.663Z,98183.22
2022-09-20T01:34:19.280Z,98185.47
2022-09-20T01:36:53.367Z,98193.09
2022-09-20T01:39:32.999Z,98200.78
2022-09-20T01:42:05.686Z,98200.16
2022-09-20T01:44:41.760Z,98209.63
2022-09-20T01:47:28.989Z,98199.34
2022-09-20T01:50:04.118Z,98199.56
2022-09-20T01:52:46.457Z,98193.72
2022-09-20T01:55:51.975Z,98201.25
2022-09-20T01:59:07.289Z,98201.81
2022-09-20T02:02:07.724Z,98209.75
2022-09-20T02:05:10.248Z,98215.31
2022-09-20T02:08:10.154Z,98220.22
2022-09-20T02:10:55.325Z,98229.84
2022-09-20T02:13:31.872Z,98220.03
2022-09-20T02:16:17.448Z,98229.88
2022-09-20T02:19:07.932Z,98225.72
2022-09-20T02:21:40.088Z,98241.06
2022-09-20T02:24:23.314Z,98238.56
2022-09-20T02:27:03.963Z,98241.09
2022-09-20T02:29:43.627Z,98249.31
2022-09-20T02:32:29.624Z,98252.16
2022-09-20T02:35:40.634Z,98262.53
2022-09-20T02:38:24.018Z,98271.94
2022-09-20T02:41:07.357Z,98273.50
2022-09-20T02:43:42.071Z,98266.50
2022-09-20T02:46:18.403Z,98283.03
2022-09-20T02:48:56.102Z,98279.94
2022-09-20T02:51:32.485Z,98284.44
2022-09-20T02:54:14.254Z,98301.44
2022-09-20T02:56:54.417Z,98297.56
2022-09-20T02:59:31.152Z,98307.81
2022-09-20T03:02:09.345Z,98320.47
2022-09-20T03:04:53.027Z,98315.13
2022-09-20T03:07:33.998Z,98313.91
2022-09-20T03:10:14.149Z,98320.06
2022-09-20T03:12:54.243Z,98340.06
2022-09-20T03:15:32.227Z,98331.31
2022-09-20T03:18:09.608Z,98331.91
2022-09-20T03:20:49.281Z,98336.63
2022-09-20T03:23:38.437Z,98349.50
2022-09-20T03:26:18.271Z,98359.34
2022-09-20T03:28:59.336Z,98366.28
2022-09-20T03:31:42.513Z,98366.50
2022-09-20T03:34:24.460Z,98372.41
2022-09-20T03:37:08.069Z,98370.38
2022-09-20T03:40:18.286Z,98367.53
2022-09-20T03:42:50.009Z,98392.09
2022-09-20T03:45:50.412Z,98374.47
2022-09-20T03:48:53.956Z,98406.19
2022-09-20T03:51:33.753Z,98404.56
2022-09-20T03:54:44.623Z,98402.91
2022-09-20T03:57:35.918Z,98396.81
2022-09-20T04:00:23.668Z,98410.03
2022-09-20T04:03:04.604Z,98419.31
2022-09-20T04:05:45.918Z,98422.38
2022-09-20T04:08:25.246Z,98427.28
2022-09-20T04:11:08.344Z,98437.72
2022-09-20T04:13:40.469Z,98436.72
2022-09-20T04:16:23.915Z,98446.53
2022-09-20T04:18:57.872Z,98445.31
2022-09-20T04:21:33.186Z,98444.47
2022-09-20T04:24:09.995Z,98466.16
2022-09-20T04:26:45.631Z,98458.19
2022-09-20T04:29:34.815Z,98458.56
2022-09-20T04:32:15.173Z,98465.94
2022-09-20T04:35:05.263Z,98481.53
2022-09-20T04:37:36.599Z,98487.97
2022-09-20T04:40:16.690Z,98475.19
2022-09-20T04:43:30.591Z,98483.50
2022-09-20T04:46:35.755Z,98487.38
2022-09-20T04:49:43.269Z,98493.72
2022-09-20T04:52:38.239Z,98499.75
2022-09-20T04:55:52.993Z,98503.78
2022-09-20T04:58:50.805Z,98518.03
2022-09-20T05:02:03.707Z,98524.53
2022-09-20T05:05:16.208Z,98524.94
2022-09-20T05:08:20.911Z,98520.47
2022-09-20T05:11:15.947Z,98520.34
2022-09-20T05:14:01.228Z,98533.16
2022-09-20T05:16:46.741Z,98539.00
2022-09-20T05:19:29.618Z,98543.25
2022-09-20T05:22:27.512Z,98550.88
2022-09-20T05:25:07.796Z,98560.56
2022-09-20T05:27:44.519Z,98557.66
2022-09-20T05:30:33.788Z,98559.28
2022-09-20T05:33:13.480Z,98569.97
2022-09-20T05:35:48.616Z,98567.69
2022-09-20T05:41:15.852Z,98563.63
2022-09-20T05:43:54.131Z,98572.03
2022-09-20T05:46:35.075Z,98572.78
2022-09-20T05:49:13.605Z,98567.47
2022-09-20T05:51:59.801Z,98580.59
2022-09-20T05:55:02.173Z,98583.78
2022-09-20T05:57:46.126Z,98583.44
2022-09-20T06:00:18.029Z,98595.56
2022-09-20T06:02:55.309Z,98596.28
2022-09-20T06:05:35.243Z,98602.56
2022-09-20T06:08:27.551Z,98590.28
2022-09-20T06:11:23.840Z,98597.06
2022-09-20T06:14:06.236Z,98614.19
2022-09-20T06:16:45.113Z,98610.44
2022-09-20T06:19:24.920Z,98617.84
2022-09-20T06:21:55.487Z,98613.81
2022-09-20T06:24:36.835Z,98617.72
2022-09-20T06:27:12.391Z,98622.91
2022-09-20T06:29:45.963Z,98625.50
2022-09-20T06:32:18.715Z,98631.63
2022-09-20T06:34:48.796Z,98638.91
2022-09-20T06:37:48.430Z,98649.56
2022-09-20T06:40:54.461Z,98643.16
2022-09-20T06:43:24.379Z,98652.16
2022-09-20T06:45:52.984Z,98646.13
2022-09-20T06:48:21.438Z,98651.38
2022-09-20T06:50:50.020Z,98657.41
2022-09-20T06:53:21.113Z,98658.81
2022-09-20T06:55:50.106Z,98661.03
2022-09-20T06:58:18.614Z,98654.69
2022-09-20T07:00:48.507Z,98663.91
2022-09-20T07:03:19.686Z,98668.75
2022-09-20T07:05:48.416Z,98670.28
2022-09-20T07:08:17.794Z,98683.72
2022-09-20T07:10:46.361Z,98675.47
2022-09-20T07:13:15.020Z,98689.09
2022-09-20T07:15:43.544Z,98691.16
2022-09-20T07:18:13.352Z,98693.25
2022-09-20T07:20:41.988Z,98695.41
2022-09-20T07:23:10.425Z,98703.34
2022-09-20T07:25:39.177Z,98695.16
2022-09-20T07:28:07.676Z,98701.75
2022-09-20T07:30:36.222Z,98708.53
2022-09-20T07:33:04.708Z,98705.50
2022-09-20T07:35:34.685Z,98708.47
2022-09-20T07:38:03.218Z,98711.47
2022-09-20T07:40:32.187Z,98718.16
2022-09-20T07:43:00.645Z,98720.16
2022-09-20T07:45:29.471Z,98719.97
2022-09-20T07:47:58.995Z,98725.34
2022-09-20T07:50:27.557Z,98726.16
2022-09-20T07:52:59.160Z,98733.19
2022-09-20T07:55:27.756Z,98735.13
2022-09-20T07:57:56.371Z,98732.59
2022-09-20T08:00:24.794Z,98736.72
2022-09-20T08:03:00.555Z,98729.75
2022-09-20T08:05:29.064Z,98737.34
2022-09-20T08:08:00.852Z,98741.72
2022-09-20T08:10:29.443Z,98751.91
2022-09-20T08:15:46.625Z,98749.38
2022-09-20T08:18:17.181Z,98746.94
2022-09-20T08:20:45.635Z,98750.00
2022-09-20T08:23:51.435Z,98752.56
2022-09-20T08:26:57.036Z,98747.53
2022-09-20T08:30:02.923Z,98748.16
2022-09-20T08:33:27.325Z,98751.25
2022-09-20T08:36:17.945Z,98753.22
2022-09-20T08:41:40.204Z,98755.63
2022-09-20T08:44:17.048Z,98756.00
2022-09-20T08:46:51.452Z,98761.28
2022-09-20T08:49:27.238Z,98763.59
2022-09-20T08:51:58.324Z,98764.78
2022-09-20T08:54:32.325Z,98777.06
2022-09-20T08:57:05.442Z,98765.59
2022-09-20T08:59:34.785Z,98771.69
2022-09-20T09:02:05.012Z,98781.75
2022-09-20T09:04:37.422Z,98778.38
2022-09-20T09:07:06.092Z,98788.53
2022-09-20T09:09:38.051Z,98778.06
2022-09-20T09:12:07.087Z,98774.72
2022-09-20T09:14:55.237Z,98763.25
2022-09-20T09:17:27.856Z,98771.66
2022-09-20T09:20:00.481Z,98787.38
2022-09-20T09:22:35.336Z,98792.47
2022-09-20T09:25:25.931Z,98801.34
2022-09-20T09:27:58.511Z,98791.50
2022-09-20T09:30:30.617Z,98789.34
2022-09-20T09:33:25.304Z,98788.94
2022-09-20T09:35:56.951Z,98797.97
2022-09-20T09:38:28.195Z,98805.31
2022-09-20T09:40:59.421Z,98816.19
2022-09-20T09:43:30.500Z,98815.75
2022-09-20T09:46:18.654Z,98820.66
2022-09-20T09:49:12.316Z,98820.47
2022-09-20T09:51:43.482Z,98819.06
2022-09-20T09:54:19.065Z,98830.88
2022-09-20T09:56:58.335Z,98829.78
2022-09-20T09:59:40.506Z,98828.31
2022-09-20T10:02:24.556Z,98836.91
2022-09-20T10:05:02.477Z,98837.75
2022-09-20T10:07:39.804Z,98832.13
2022-09-20T10:10:21.333Z,98844.22
2022-09-20T10:13:03.464Z,98839.00
2022-09-20T10:15:36.908Z,98841.16
2022-09-20T10:18:22.476Z,98846.00
2022-09-20T10:21:13.373Z,98845.66
2022-09-20T10:24:06.301Z,98851.41
2022-09-20T10:26:54.851Z,98856.34
2022-09-20T10:29:31.564Z,98856.38
2022-09-20T10:32:15.490Z,98826.19
2022-09-20T10:35:09.669Z,98859.44
2022-09-20T10:37:51.639Z,98867.53
2022-09-20T10:40:50.862Z,98854.13
2022-09-20T10:43:32.690Z,98861.34
2022-09-20T10:46:31.441Z,98870.41
2022-09-20T10:49:08.386Z,98866.38
2022-09-20T10:51:48.752Z,98869.84
2022-09-20T10:54:38.611Z,98867.06
2022-09-20T10:57:26.726Z,98871.19
2022-09-20T11:00:06.576Z,98866.69
2022-09-20T11:02:47.293Z,98873.16
2022-09-20T11:05:44.777Z,98884.16
2022-09-20T11:08:19.038Z,98875.38
2022-09-20T11:10:56.296Z,98882.13
2022-09-20T11:13:33.079Z,98886.84
2022-09-20T11:16:07.140Z,98892.13
2022-09-20T11:18:45.367Z,98883.75
2022-09-20T11:21:23.286Z,98902.22
2022-09-20T11:23:58.346Z,98908.38
2022-09-20T11:26:34.200Z,98900.81
2022-09-20T11:29:10.511Z,98915.03
2022-09-20T11:31:45.083Z,98912.63
2022-09-20T11:34:21.703Z,98917.38
2022-09-20T11:36:57.679Z,98927.66
2022-09-20T11:39:31.692Z,98927.34
2022-09-20T11:42:02.970Z,98938.75
2022-09-20T11:44:32.377Z,98945.84
2022-09-20T11:47:05.222Z,98942.56
2022-09-20T11:49:42.126Z,98952.09
2022-09-20T11:52:28.844Z,98956.16
2022-09-20T11:55:19.180Z,98958.34
2022-09-20T11:58:01.961Z,98946.53
2022-09-20T12:00:34.724Z,98945.84
2022-09-20T12:03:07.675Z,98952.25
2022-09-20T12:05:39.374Z,98954.63
2022-09-20T12:08:22.042Z,98966.81
2022-09-20T12:10:59.672Z,98952.94
2022-09-20T12:13:30.018Z,98954.84
2022-09-20T12:16:05.419Z,98961.25
2022-09-20T12:18:49.582Z,98958.78
2022-09-20T12:21:20.853Z,98967.00
2022-09-20T12:24:21.588Z,98960.16
2022-09-20T12:26:52.269Z,98972.47
2022-09-20T12:30:11.263Z,98971.25
2022-09-20T12:32:50.793Z,98973.53
2022-09-20T12:35:59.472Z,98980.53
2022-09-20T12:39:04.486Z,98985.47
2022-09-20T12:41:52.405Z,98982.78
2022-09-20T12:44:33.896Z,98986.03
2022-09-20T12:47:04.812Z,98993.44
2022-09-20T12:49:56.366Z,98984.53
2022-09-20T12:52:57.034Z,98999.94
2022-09-20T12:55:50.283Z,98993.09
2022-09-20T12:58:28.158Z,98998.09
2022-09-20T13:01:34.229Z,99001.00
2022-09-20T13:04:55.443Z,99002.78
2022-09-20T13:07:45.292Z,98988.78
2022-09-20T13:10:33.771Z,98999.19
2022-09-20T13:13:15.308Z,98994.06
2022-09-20T13:15:59.534Z,99002.34
2022-09-20T13:18:29.753Z,99003.16
2022-09-20T13:21:06.725Z,99009.97
2022-09-20T13:23:48.050Z,99013.53
2022-09-20T13:26:25.907Z,99016.66
2022-09-20T13:28:57.172Z,99012.59
2022-09-20T13:31:36.013Z,98999.81
2022-09-20T13:34:21.879Z,99020.03
2022-09-20T13:36:56.376Z,99028.25
2022-09-20T13:39:36.975Z,99028.50
2022-09-20T13:42:16.431Z,99027.38
2022-09-20T13:44:45.359Z,99026.94
2022-09-20T13:47:24.031Z,99018.53
2022-09-20T13:50:00.622Z,99033.53
2022-09-20T13:52:31.710Z,99036.16
2022-09-20T13:55:01.705Z,99029.69
2022-09-20T13:57:32.061Z,99027.31
2022-09-20T14:00:05.285Z,99006.31
2022-09-20T14:02:40.571Z,99036.16
2022-09-20T14:05:18.341Z,99040.47
2022-09-20T14:07:48.657Z,99041.47
2022-09-20T14:10:37.727Z,99040.44
2022-09-20T14:13:09.697Z,99037.09
2022-09-20T14:15:43.817Z,99051.13
2022-09-20T14:18:15.617Z,99047.34
2022-09-20T14:20:49.270Z,99046.34
2022-09-20T14:23:23.809Z,99046.56
2022-09-20T14:26:23.049Z,99046.59
2022-09-20T14:28:51.688Z,99046.69
2022-09-20T14:31:24.928Z,99053.47
2022-09-20T14:33:56.211Z,99058.13
2022-09-20T14:36:27.682Z,99066.91
2022-09-20T14:39:04.118Z,99066.34
2022-09-20T14:41:36.925Z,99066.41
2022-09-20T14:44:07.189Z,99067.47
2022-09-20T14:46:40.076Z,99065.28
2022-09-20T14:49:23.073Z,99065.38
2022-09-20T14:51:55.207Z,99076.16
2022-09-20T14:54:30.257Z,99082.47
2022-09-20T14:57:30.407Z,99089.91
2022-09-20T14:59:59.552Z,99093.00
2022-09-20T15:02:28.464Z,99094.19
2022-09-20T15:04:59.348Z,99087.38
2022-09-20T15:07:28.453Z,99078.16
2022-09-20T15:10:06.504Z,99084.00
2022-09-20T15:12:36.652Z,99091.78
2022-09-20T15:15:10.919Z,99099.03
2022-09-20T15:17:39.669Z,99106.00
2022-09-20T15:20:13.774Z,99106.84
2022-09-20T15:22:43.203Z,99100.28
2022-09-20T15:25:16.285Z,99100.28
2022-09-20T15:27:47.696Z,99117.31
2022-09-20T15:30:19.736Z,99114.81
2022-09-20T15:32:49.008Z,99112.34
2022-09-20T15:35:17.725Z,99107.25
2022-09-20T15:37:46.607Z,99119.16
2022-09-20T15:40:15.481Z,99117.13
2022-09-20T15:42:44.317Z,99117.31
2022-09-20T15:45:16.710Z,99122.06
2022-09-20T15:47:50.529Z,99112.19
2022-09-20T15:50:23.477Z,99129.47
2022-09-20T15:52:59.955Z,99126.59
2022-09-20T15:55:28.874Z,99137.28
2022-09-20T15:57:57.479Z,99135.41
2022-09-20T16:00:27.550Z,99147.22
2022-09-20T16:02:57.301Z,99135.25
2022-09-20T16:05:25.987Z,99141.06
2022-09-20T16:07:54.621Z,99145.53
2022-09-20T16:10:23.275Z,99146.44
2022-09-20T16:12:52.089Z,99153.38
2022-09-20T16:15:20.576Z,99154.88
2022-09-20T16:18:08.939Z,99159.41
2022-09-20T16:20:42.895Z,99154.13
2022-09-20T16:23:17.351Z,99146.63
2022-09-20T16:26:01.646Z,99168.50
2022-09-20T16:28:37.535Z,99156.31
2022-09-20T16:31:06.744Z,99143.31
2022-09-20T16:33:36.748Z,99170.03
2022-09-20T16:36:05.678Z,99170.56
2022-09-20T16:38:35.110Z,99168.69
2022-09-20T16:41:05.841Z,99176.38
2022-09-20T16:43:35.345Z,99171.72
2022-09-20T16:46:12.141Z,99170.28
2022-09-20T16:48:42.756Z,99171.25
2022-09-20T16:51:15.587Z,99170.56
2022-09-20T16:53:55.827Z,99161.50
2022-09-20T16:56:29.434Z,99170.59
2022-09-20T16:58:58.320Z,99169.00
2022-09-20T17:01:26.989Z,99173.38
2022-09-20T17:04:05.597Z,99160.66
2022-09-20T17:06:35.532Z,99178.34
2022-09-20T17:09:10.323Z,99163.19
2022-09-20T17:11:48.517Z,99182.66
2022-09-20T17:14:28.144Z,99183.16
2022-09-20T17:16:59.605Z,99192.75
2022-09-20T17:19:30.012Z,99191.84
2022-09-20T17:22:03.921Z,99189.31
2022-09-20T17:24:36.050Z,99187.97
2022-09-20T17:27:10.009Z,99174.88
2022-09-20T17:29:45.639Z,99200.19
2022-09-20T17:32:14.665Z,99205.22
2022-09-20T17:34:46.726Z,99213.16
2022-09-20T17:37:20.656Z,99198.81
2022-09-20T17:39:50.457Z,99196.50
2022-09-20T17:42:24.953Z,99216.50
2022-09-20T17:44:55.665Z,99216.31
2022-09-20T17:47:30.825Z,99216.25
2022-09-20T17:50:01.502Z,99218.31
2022-09-20T17:52:31.903Z,99219.03
2022-09-20T17:55:05.479Z,99220.66
2022-09-20T17:58:15.683Z,99225.72
2022-09-20T18:01:12.334Z,99215.00
2022-09-20T18:03:43.417Z,99214.63
2022-09-20T18:06:19.383Z,99209.94
2022-09-20T18:08:52.583Z,99199.09
2022-09-20T18:11:23.373Z,99224.16
2022-09-20T18:13:53.609Z,99224.63
2022-09-20T18:16:23.439Z,99218.81
2022-09-20T18:18:52.305Z,99220.00
2022-09-20T18:21:23.936Z,99225.19
2022-09-20T18:23:54.064Z,99221.41
2022-09-20T18:26:26.769Z,99227.28
2022-09-20T18:28:58.237Z,99229.22
2022-09-20T18:31:30.069Z,99231.66
2022-09-20T18:34:00.901Z,99229.84
2022-09-20T18:36:35.162Z,99223.41
2022-09-20T18:39:04.157Z,99232.22
2022-09-20T18:41:33.845Z,99230.03
2022-09-20T18:44:04.165Z,99237.91
2022-09-20T18:46:32.572Z,99232.56
2022-09-20T18:49:04.751Z,99228.09
2022-09-20T18:51:39.192Z,99229.63
2022-09-20T18:54:10.257Z,99224.22
2022-09-20T18:56:39.327Z,99230.00
2022-09-20T18:59:08.406Z,99234.09
2022-09-20T19:01:45.358Z,99240.78
2022-09-20T19:04:24.119Z,99232.22
2022-09-20T19:07:00.667Z,99239.13
2022-09-20T19:09:36.528Z,99225.53
2022-09-20T19:12:08.655Z,99234.34
2022-09-20T19:14:45.471Z,99234.22
2022-09-20T19:17:17.719Z,99232.84
2022-09-20T19:19:51.523Z,99237.00
2022-09-20T19:22:28.220Z,99242.53
2022-09-20T19:25:18.679Z,99242.53
2022-09-20T19:27:51.863Z,99246.25
2022-09-20T19:30:20.550Z,99242.84
2022-09-20T19:32:48.960Z,99244.81
2022-09-20T19:35:20.106Z,99242.69
2022-09-20T19:38:02.349Z,99244.19
2022-09-20T19:40:36.377Z,99234.59
2022-09-20T19:43:13.301Z,99235.47
2022-09-20T19:45:46.951Z,99239.19
2022-09-20T19:48:18.598Z,99246.97
2022-09-20T19:50:47.421Z,99243.88
2022-09-20T19:53:17.795Z,99247.41
2022-09-20T19:55:48.273Z,99247.31
2022-09-20T19:58:16.693Z,99262.06
2022-09-20T20:00:45.584Z,99261.16
2022-09-20T20:03:14.032Z,99266.59
2022-09-20T20:05:44.243Z,99267.47
2022-09-20T20:08:15.800Z,99272.06
2022-09-20T20:10:51.146Z,99270.56
2022-09-20T20:13:42.081Z,99278.03
2022-09-20T20:16:13.693Z,99280.19
2022-09-20T20:18:46.495Z,99281.59
2022-09-20T20:21:19.978Z,99283.25
2022-09-20T20:23:58.860Z,99285.09
2022-09-20T20:26:28.618Z,99279.19
2022-09-20T20:28:56.761Z,99282.06
2022-09-20T20:31:24.911Z,99272.28
2022-09-20T20:33:54.742Z,99275.94
2022-09-20T20:36:22.841Z,99281.31
2022-09-20T20:38:53.138Z,99275.75
2022-09-20T20:41:22.449Z,99276.34
2022-09-20T20:43:56.227Z,99274.34
2022-09-20T20:46:25.279Z,99264.56
2022-09-20T20:48:53.525Z,99271.38
2022-09-20T20:51:22.534Z,99268.22
2022-09-20T20:53:51.696Z,99269.84
2022-09-20T20:56:20.866Z,99266.38
2022-09-20T20:58:50.060Z,99259.16
2022-09-20T21:01:20.720Z,99262.41
2022-09-20T21:03:49.885Z,99265.84
2022-09-20T21:06:18.379Z,99269.41
2022-09-20T21:08:49.538Z,99268.50
2022-09-20T21:11:19.960Z,99267.53
2022-09-20T21:13:49.124Z,99278.19
2022-09-20T21:16:18.003Z,99274.06
2022-09-20T21:18:48.740Z,99275.59
2022-09-20T21:21:18.291Z,99268.84
2022-09-20T21:23:47.357Z,99265.44
2022-09-20T21:26:16.478Z,99268.91
2022-09-20T21:28:45.844Z,99276.91
2022-09-20T21:31:14.431Z,99278.22
2022-09-20T21:33:43.335Z,99276.00
2022-09-20T21:36:14.070Z,99283.41
2022-09-20T21:38:42.609Z,99286.75
2022-09-20T21:41:11.923Z,99277.75
2022-09-20T21:43:41.981Z,99283.78
2022-09-20T21:46:13.851Z,99280.94
2022-09-20T21:48:42.324Z,99275.97
2022-09-20T21:51:11.660Z,99276.09
2022-09-20T21:53:41.337Z,99268.63
2022-09-20T21:56:10.545Z,99270.31
2022-09-20T21:58:40.114Z,99270.34
2022-09-20T22:01:11.466Z,99270.66
2022-09-20T22:03:41.004Z,99268.88
2022-09-20T22:06:10.633Z,99270.56
2022-09-20T22:08:39.310Z,99275.81
2022-09-20T22:11:13.507Z,99277.72
2022-09-20T22:13:43.386Z,99279.59
2022-09-20T22:16:12.420Z,99282.53
2022-09-20T22:18:41.842Z,99281.59
2022-09-20T22:21:13.281Z,99279.63
2022-09-20T22:23:41.876Z,99283.63
2022-09-20T22:26:12.153Z,99283.66
2022-09-20T22:28:40.855Z,99290.72
2022-09-20T22:31:09.967Z,99293.91
2022-09-20T22:33:41.852Z,99294.25
2022-09-20T22:36:14.142Z,99287.16
2022-09-20T22:38:42.544Z,99282.91
2022-09-20T22:41:12.779Z,99292.91
2022-09-20T22:43:41.869Z,99288.09
2022-09-20T22:46:11.264Z,99297.31
2022-09-20T22:48:40.110Z,99302.25
2022-09-20T22:51:10.618Z,99299.56
2022-09-20T22:53:38.890Z,99297.78
2022-09-20T22:56:07.879Z,99300.13
2022-09-20T22:58:38.643Z,99305.16
2022-09-20T23:01:08.049Z,99297.38
2022-09-20T23:03:36.435Z,99309.00
2022-09-20T23:06:04.693Z,99309.13
2022-09-20T23:08:33.460Z,99302.63
2022-09-20T23:11:02.359Z,99301.78
2022-09-20T23:13:30.703Z,99305.66
2022-09-20T23:16:01.267Z,99300.44
2022-09-20T23:18:29.647Z,99310.22
2022-09-20T23:21:01.230Z,99298.25
2022-09-20T23:23:29.611Z,99300.56
2022-09-20T23:26:04.088Z,99299.56
2022-09-20T23:28:32.221Z,99301.25
2022-09-20T23:31:04.770Z,99302.69
2022-09-20T23:33:33.228Z,99294.56
2022-09-20T23:36:01.475Z,99305.66
2022-09-20T23:38:29.632Z,99302.63
2022-09-20T23:41:02.780Z,99295.44
2022-09-20T23:43:31.043Z,99296.66
2022-09-20T23:45:59.469Z,99296.06
2022-09-20T23:48:29.073Z,99297.31
2022-09-20T23:50:57.386Z,99305.56
2022-09-20T23:53:25.901Z,99309.31
2022-09-20T23:55:54.082Z,99312.88
2022-09-20T23:58:22.251Z,99316.19
